createdAt,value
2017-01-09T09:00:32.221Z,26.36
2017-01-09T09:01:02.555Z,25.02
2017-01-09T09:01:32.290Z,24.05
2017-01-09T09:02:02.621Z,23.86
2017-01-09T09:02:32.350Z,23.86
2017-01-09T09:03:13.071Z,23.19
2017-01-09T09:03:43.102Z,23.09
2017-01-09T09:04:13.135Z,23.09
2017-01-09T09:04:43.169Z,22.71
2017-01-09T09:05:13.201Z,23.09
2017-01-09T09:05:43.245Z,23.38
2017-01-09T09:06:13.269Z,23.38
2017-01-09T09:06:43.301Z,23.28
2017-01-09T09:07:13.335Z,23.38
2017-01-09T09:07:43.367Z,23.38
2017-01-09T09:08:13.401Z,23.28
2017-01-09T09:08:43.436Z,23.09
2017-01-09T09:09:13.475Z,23.19
2017-01-09T09:09:43.506Z,23.19
2017-01-09T09:10:13.543Z,23.09
2017-01-09T09:10:43.580Z,23.19
2017-01-09T09:11:13.612Z,23.28
2017-01-09T09:11:43.648Z,23.09
2017-01-09T09:12:13.681Z,23.28
2017-01-09T09:12:43.716Z,23.09
2017-01-09T09:13:13.761Z,23
2017-01-09T09:13:43.789Z,23.1
2017-01-09T09:14:13.827Z,22.99
2017-01-09T09:14:43.859Z,23
2017-01-09T09:15:13.895Z,23.2
2017-01-09T09:15:43.930Z,23.3
2017-01-09T09:16:13.965Z,22.9
2017-01-09T09:16:44.012Z,23.38
2017-01-09T09:17:14.040Z,23.3
2017-01-09T09:17:44.079Z,23.3
2017-01-09T09:18:14.108Z,23.3
2017-01-09T09:18:44.171Z,23.39
2017-01-09T09:19:14.184Z,23.58
2017-01-09T09:19:44.217Z,23.49
2017-01-09T09:20:14.257Z,23.2
2017-01-09T09:20:44.309Z,23.3
2017-01-09T09:21:14.326Z,23.39
2017-01-09T09:21:44.365Z,23.3
2017-01-09T09:22:14.399Z,23.2
2017-01-09T09:22:44.438Z,23.2
2017-01-09T09:23:14.472Z,23.2
2017-01-09T09:23:44.504Z,23.2
2017-01-09T09:24:14.543Z,23.2
2017-01-09T09:24:44.577Z,23.2
2017-01-09T09:25:14.639Z,23.3
2017-01-09T09:25:44.650Z,23.2
2017-01-09T09:26:14.696Z,23.68
2017-01-09T09:26:44.723Z,23.58
2017-01-09T09:27:14.763Z,23.87
2017-01-09T09:27:44.794Z,23.68
2017-01-09T09:28:14.833Z,23.78
2017-01-09T09:28:44.868Z,23.78
2017-01-09T09:29:14.903Z,24.07
2017-01-09T09:29:44.941Z,23.68
2017-01-09T09:30:14.978Z,23.97
2017-01-09T09:30:45.016Z,23.87
2017-01-09T09:31:15.051Z,23.87
2017-01-09T09:31:45.083Z,23.78
2017-01-09T09:32:15.124Z,23.78
2017-01-09T09:32:45.160Z,23.97
2017-01-09T09:33:15.198Z,23.97
2017-01-09T09:33:45.232Z,23.97
2017-01-09T09:34:15.277Z,23.88
2017-01-09T09:34:45.301Z,23.98
2017-01-09T09:35:15.350Z,23.6
2017-01-09T09:35:45.380Z,23.98
2017-01-09T09:36:15.415Z,23.88
2017-01-09T09:36:45.458Z,24.18
2017-01-09T09:37:15.490Z,23.98
2017-01-09T09:37:45.525Z,24.27
2017-01-09T09:38:15.572Z,24.08
2017-01-09T09:38:45.600Z,23.98
2017-01-09T09:39:15.632Z,23.88
2017-01-09T09:39:45.670Z,23.88
2017-01-09T09:40:15.709Z,23.88
2017-01-09T09:40:45.744Z,24.18
2017-01-09T09:41:15.780Z,23.31
2017-01-09T09:41:45.773Z,24.08
2017-01-09T09:42:15.857Z,23.79
2017-01-09T09:42:45.890Z,23.88
2017-01-09T09:43:15.928Z,23.98
2017-01-09T09:43:45.972Z,23.88
2017-01-09T09:44:16.002Z,23.88
2017-01-09T09:44:46.037Z,23.69
2017-01-09T09:45:16.074Z,24.18
2017-01-09T09:45:46.112Z,23.79
2017-01-09T09:46:16.150Z,23.98
2017-01-09T09:46:46.186Z,24.18
2017-01-09T09:47:16.223Z,23.98
2017-01-09T09:47:46.255Z,24.18
2017-01-09T09:48:16.292Z,24.08
2017-01-09T09:48:46.329Z,23.98
2017-01-09T09:49:16.371Z,24.18
2017-01-09T09:49:46.402Z,23.6
2017-01-09T09:50:16.449Z,23.98
2017-01-09T09:50:46.476Z,24.08
2017-01-09T09:51:16.514Z,23.88
2017-01-09T09:51:46.547Z,24.18
2017-01-09T09:52:16.591Z,24.08
2017-01-09T09:52:46.626Z,23.98
2017-01-09T09:53:16.659Z,24.27
2017-01-09T09:53:46.696Z,23.71
2017-01-09T10:03:44.262Z,22.36
2017-01-09T10:04:14.292Z,22.27
2017-01-09T10:04:44.329Z,22.66
2017-01-09T10:05:14.364Z,22.56
2017-01-09T10:05:44.394Z,22.47
2017-01-09T10:06:14.436Z,22.66
2017-01-09T10:06:44.468Z,22.17
2017-01-09T10:07:14.502Z,22.38
